Ana Sayfa
METAR-TAF:

METAR-TAF

Havaalanları :

Lawrence Municipal Airport

Lawrence, Massachusetts, Amerika Birleşik Devletleri

Enlem: 42-42-47N, Boylam: 071-07-33W, yükseklik: 45 m

Güncel hava durumu gözlemi

Rapor saat 06:54 UTC de 37 dakika önce yapıldı.
Rüzgar güney/güneydoğudan 3 kt
Sıcaklık 5°C
Nem 65%
Basınç 1014 hPa
Görüş mesafesi: 16.1 km
10000 ft yükseklikte az bulutlu

METAR: KLWM 250654Z AUTO 16003KT 10SM FEW100 05/M01 A2993 RMK AO2 SLP134 T00501011

Saat: 02:31 (07:31 UTC)


TAF: eksik

4.000'den fazla havaalanı için hava durumu gözlemleri ve tahminleri (METAR ve TAF raporları).

Kullanılabilir istasyonlar harita üzerinde sarı ve kırmızı noktalarla gösterilir.

İstasyonun adını görmek için fareyi noktanın üzerinde gezdirin.

Sonrasında hava gözlem ve tahminlerini görmek için tıklayın.

Haritayı değiştirmek için: yaklaştırmak için siyah artı işaretli yeşil düğmeye ve uzaklaştırmak için de eksi işaretli düğmeye hızla tıklayın; bitişik haritalar için yeşil okları kullanın.


METAR-TAF: